sensor_id;sensor_type;location;lat;lon;timestamp;temperature;humidity
25983;DHT22;13773;48.868;10.730;2024-02-04T00:01:19;6.10;99.90
25983;DHT22;13773;48.868;10.730;2024-02-04T00:03:44;6.10;99.90
25983;DHT22;13773;48.868;10.730;2024-02-04T00:06:10;6.10;99.90
25983;DHT22;13773;48.868;10.730;2024-02-04T00:08:36;6.10;99.90
25983;DHT22;13773;48.868;10.730;2024-02-04T00:11:02;6.10;99.90
25983;DHT22;13773;48.868;10.730;2024-02-04T00:13:30;6.10;99.90
25983;DHT22;13773;48.868;10.730;2024-02-04T00:15:56;6.10;99.90
25983;DHT22;13773;48.868;10.730;2024-02-04T00:18:24;6.10;99.90
25983;DHT22;13773;48.868;10.730;2024-02-04T00:20:50;6.10;99.90
25983;DHT22;13773;48.868;10.730;2024-02-04T00:23:16;6.10;99.90
25983;DHT22;13773;48.868;10.730;2024-02-04T00:25:41;6.10;99.90
25983;DHT22;13773;48.868;10.730;2024-02-04T00:28:07;6.00;99.90
25983;DHT22;13773;48.868;10.730;2024-02-04T00:30:37;6.00;99.90
25983;DHT22;13773;48.868;10.730;2024-02-04T00:33:03;6.00;99.90
25983;DHT22;13773;48.868;10.730;2024-02-04T00:35:29;6.00;99.90
25983;DHT22;13773;48.868;10.730;2024-02-04T00:37:55;6.00;99.90
25983;DHT22;13773;48.868;10.730;2024-02-04T00:40:21;6.00;99.90
25983;DHT22;13773;48.868;10.730;2024-02-04T00:42:47;6.00;99.90
25983;DHT22;13773;48.868;10.730;2024-02-04T00:45:12;6.00;99.90
25983;DHT22;13773;48.868;10.730;2024-02-04T00:47:38;6.00;99.90
25983;DHT22;13773;48.868;10.730;2024-02-04T00:50:04;6.00;99.90
25983;DHT22;13773;48.868;10.730;2024-02-04T00:52:30;6.00;99.90
25983;DHT22;13773;48.868;10.730;2024-02-04T00:54:56;6.00;99.90
25983;DHT22;13773;48.868;10.730;2024-02-04T00:57:22;6.00;99.90
25983;DHT22;13773;48.868;10.730;2024-02-04T00:59:47;6.00;99.90
25983;DHT22;13773;48.868;10.730;2024-02-04T01:02:13;6.00;99.90
25983;DHT22;13773;48.868;10.730;2024-02-04T01:04:39;5.90;99.90
25983;DHT22;13773;48.868;10.730;2024-02-04T01:07:04;5.90;99.90
25983;DHT22;13773;48.868;10.730;2024-02-04T01:09:30;5.90;99.90
25983;DHT22;13773;48.868;10.730;2024-02-04T01:11:56;5.90;99.90
25983;DHT22;13773;48.868;10.730;2024-02-04T01:14:21;5.90;99.90
25983;DHT22;13773;48.868;10.730;2024-02-04T01:16:47;5.90;99.90
25983;DHT22;13773;48.868;10.730;2024-02-04T01:19:12;5.90;99.90
25983;DHT22;13773;48.868;10.730;2024-02-04T01:21:38;5.90;99.90
25983;DHT22;13773;48.868;10.730;2024-02-04T01:24:04;5.90;99.90
25983;DHT22;13773;48.868;10.730;2024-02-04T01:26:30;5.90;99.90
25983;DHT22;13773;48.868;10.730;2024-02-04T01:28:56;5.90;99.90
25983;DHT22;13773;48.868;10.730;2024-02-04T01:31:21;5.90;99.90
25983;DHT22;13773;48.868;10.730;2024-02-04T01:33:47;5.90;99.90
25983;DHT22;13773;48.868;10.730;2024-02-04T01:36:12;5.90;99.90
25983;DHT22;13773;48.868;10.730;2024-02-04T01:38:38;5.90;99.90
25983;DHT22;13773;48.868;10.730;2024-02-04T01:41:04;5.90;99.90
25983;DHT22;13773;48.868;10.730;2024-02-04T01:43:29;5.90;99.90
25983;DHT22;13773;48.868;10.730;2024-02-04T01:45:56;5.90;99.90
25983;DHT22;13773;48.868;10.730;2024-02-04T01:48:22;5.90;99.90
25983;DHT22;13773;48.868;10.730;2024-02-04T01:50:50;5.90;99.90
25983;DHT22;13773;48.868;10.730;2024-02-04T01:53:21;5.90;99.90
25983;DHT22;13773;48.868;10.730;2024-02-04T01:55:47;5.90;99.90
25983;DHT22;13773;48.868;10.730;2024-02-04T01:58:15;5.90;99.90
25983;DHT22;13773;48.868;10.730;2024-02-04T02:00:41;5.90;99.90
25983;DHT22;13773;48.868;10.730;2024-02-04T02:03:07;5.90;99.90
25983;DHT22;13773;48.868;10.730;2024-02-04T02:05:33;5.90;99.90
25983;DHT22;13773;48.868;10.730;2024-02-04T02:08:00;5.80;99.90
25983;DHT22;13773;48.868;10.730;2024-02-04T02:10:25;5.80;99.90
25983;DHT22;13773;48.868;10.730;2024-02-04T02:13:07;5.80;99.90
25983;DHT22;13773;48.868;10.730;2024-02-04T02:15:43;5.80;99.90
25983;DHT22;13773;48.868;10.730;2024-02-04T02:18:16;5.80;99.90
25983;DHT22;13773;48.868;10.730;2024-02-04T02:23:31;5.80;99.90
25983;DHT22;13773;48.868;10.730;2024-02-04T02:26:00;5.80;99.90
25983;DHT22;13773;48.868;10.730;2024-02-04T02:28:26;5.80;99.90
25983;DHT22;13773;48.868;10.730;2024-02-04T02:30:52;5.80;99.90
25983;DHT22;13773;48.868;10.730;2024-02-04T02:33:18;5.80;99.90
25983;DHT22;13773;48.868;10.730;2024-02-04T02:35:46;5.80;99.90
25983;DHT22;13773;48.868;10.730;2024-02-04T02:38:32;5.80;99.90
25983;DHT22;13773;48.868;10.730;2024-02-04T02:41:03;5.80;99.90
25983;DHT22;13773;48.868;10.730;2024-02-04T02:43:29;5.80;99.90
25983;DHT22;13773;48.868;10.730;2024-02-04T02:45:55;5.80;99.90
25983;DHT22;13773;48.868;10.730;2024-02-04T02:48:21;5.90;99.90
25983;DHT22;13773;48.868;10.730;2024-02-04T02:50:47;5.80;99.90
25983;DHT22;13773;48.868;10.730;2024-02-04T02:53:13;5.80;99.90
25983;DHT22;13773;48.868;10.730;2024-02-04T02:55:39;5.80;99.90
25983;DHT22;13773;48.868;10.730;2024-02-04T02:58:06;5.90;99.90
25983;DHT22;13773;48.868;10.730;2024-02-04T03:00:33;5.90;99.90
25983;DHT22;13773;48.868;10.730;2024-02-04T03:02:58;5.90;99.90
25983;DHT22;13773;48.868;10.730;2024-02-04T03:05:24;5.90;99.90
25983;DHT22;13773;48.868;10.730;2024-02-04T03:07:50;6.00;99.90
25983;DHT22;13773;48.868;10.730;2024-02-04T03:10:16;6.00;99.90
25983;DHT22;13773;48.868;10.730;2024-02-04T03:12:41;6.00;99.90
25983;DHT22;13773;48.868;10.730;2024-02-04T03:15:07;6.00;99.90
25983;DHT22;13773;48.868;10.730;2024-02-04T03:17:33;6.00;99.90
25983;DHT22;13773;48.868;10.730;2024-02-04T03:19:59;6.00;99.90
25983;DHT22;13773;48.868;10.730;2024-02-04T03:22:24;6.00;99.90
25983;DHT22;13773;48.868;10.730;2024-02-04T03:24:51;6.00;99.90
25983;DHT22;13773;48.868;10.730;2024-02-04T03:27:17;6.00;99.90
25983;DHT22;13773;48.868;10.730;2024-02-04T03:29:43;6.00;99.90
25983;DHT22;13773;48.868;10.730;2024-02-04T03:32:10;6.00;99.90
25983;DHT22;13773;48.868;10.730;2024-02-04T03:34:36;5.90;99.90
25983;DHT22;13773;48.868;10.730;2024-02-04T03:37:02;6.00;99.90
25983;DHT22;13773;48.868;10.730;2024-02-04T03:39:28;5.90;99.90
25983;DHT22;13773;48.868;10.730;2024-02-04T03:41:53;5.90;99.90
25983;DHT22;13773;48.868;10.730;2024-02-04T03:44:19;5.90;99.90
25983;DHT22;13773;48.868;10.730;2024-02-04T03:46:48;5.90;99.90
25983;DHT22;13773;48.868;10.730;2024-02-04T03:49:14;5.90;99.90
25983;DHT22;13773;48.868;10.730;2024-02-04T03:51:40;5.90;99.90
25983;DHT22;13773;48.868;10.730;2024-02-04T03:54:05;6.00;99.90
25983;DHT22;13773;48.868;10.730;2024-02-04T03:56:31;5.90;99.90
25983;DHT22;13773;48.868;10.730;2024-02-04T03:58:57;5.90;99.90
25983;DHT22;13773;48.868;10.730;2024-02-04T04:01:22;5.90;99.90
25983;DHT22;13773;48.868;10.730;2024-02-04T04:03:49;5.90;99.90
25983;DHT22;13773;48.868;10.730;2024-02-04T04:06:14;5.90;99.90
25983;DHT22;13773;48.868;10.730;2024-02-04T04:08:40;5.80;99.90
25983;DHT22;13773;48.868;10.730;2024-02-04T04:11:10;5.80;99.90
25983;DHT22;13773;48.868;10.730;2024-02-04T04:13:36;5.80;99.90
25983;DHT22;13773;48.868;10.730;2024-02-04T04:16:03;5.80;99.90
25983;DHT22;13773;48.868;10.730;2024-02-04T04:18:29;5.70;99.90
25983;DHT22;13773;48.868;10.730;2024-02-04T04:20:54;5.70;99.90
25983;DHT22;13773;48.868;10.730;2024-02-04T04:23:20;5.70;99.90
25983;DHT22;13773;48.868;10.730;2024-02-04T04:25:46;5.80;99.90
25983;DHT22;13773;48.868;10.730;2024-02-04T04:28:11;5.70;99.90
25983;DHT22;13773;48.868;10.730;2024-02-04T04:30:37;5.70;99.90
25983;DHT22;13773;48.868;10.730;2024-02-04T04:33:03;5.70;99.90
25983;DHT22;13773;48.868;10.730;2024-02-04T04:35:28;5.70;99.90
25983;DHT22;13773;48.868;10.730;2024-02-04T04:37:54;5.70;99.90
25983;DHT22;13773;48.868;10.730;2024-02-04T04:40:20;5.70;99.90
25983;DHT22;13773;48.868;10.730;2024-02-04T04:42:45;5.70;99.90
25983;DHT22;13773;48.868;10.730;2024-02-04T04:45:11;5.70;99.90
25983;DHT22;13773;48.868;10.730;2024-02-04T04:47:37;5.70;99.90
25983;DHT22;13773;48.868;10.730;2024-02-04T04:50:06;5.80;99.90
25983;DHT22;13773;48.868;10.730;2024-02-04T04:52:32;5.70;99.90
25983;DHT22;13773;48.868;10.730;2024-02-04T04:54:58;5.70;99.90
25983;DHT22;13773;48.868;10.730;2024-02-04T04:57:23;5.80;99.90
25983;DHT22;13773;48.868;10.730;2024-02-04T04:59:49;5.80;99.90
25983;DHT22;13773;48.868;10.730;2024-02-04T05:02:15;5.80;99.90
25983;DHT22;13773;48.868;10.730;2024-02-04T05:04:44;5.80;99.90
25983;DHT22;13773;48.868;10.730;2024-02-04T05:07:11;5.80;99.90
25983;DHT22;13773;48.868;10.730;2024-02-04T05:09:36;5.80;99.90
25983;DHT22;13773;48.868;10.730;2024-02-04T05:12:03;5.80;99.90
25983;DHT22;13773;48.868;10.730;2024-02-04T05:14:29;5.80;99.90
25983;DHT22;13773;48.868;10.730;2024-02-04T05:16:54;5.80;99.90
25983;DHT22;13773;48.868;10.730;2024-02-04T05:19:20;5.80;99.90
25983;DHT22;13773;48.868;10.730;2024-02-04T05:21:45;5.80;99.90
25983;DHT22;13773;48.868;10.730;2024-02-04T05:24:11;5.80;99.90
25983;DHT22;13773;48.868;10.730;2024-02-04T05:26:37;5.80;99.90
25983;DHT22;13773;48.868;10.730;2024-02-04T05:29:02;5.80;99.90
25983;DHT22;13773;48.868;10.730;2024-02-04T05:31:28;5.80;99.90
25983;DHT22;13773;48.868;10.730;2024-02-04T05:33:54;5.80;99.90
25983;DHT22;13773;48.868;10.730;2024-02-04T05:36:19;5.80;99.90
25983;DHT22;13773;48.868;10.730;2024-02-04T05:38:45;5.90;99.90
25983;DHT22;13773;48.868;10.730;2024-02-04T05:41:11;5.80;99.90
25983;DHT22;13773;48.868;10.730;2024-02-04T05:43:37;8.30;99.90
25983;DHT22;13773;48.868;10.730;2024-02-04T05:46:04;5.90;99.90
25983;DHT22;13773;48.868;10.730;2024-02-04T05:48:29;5.90;99.90
25983;DHT22;13773;48.868;10.730;2024-02-04T05:50:55;6.00;99.90
25983;DHT22;13773;48.868;10.730;2024-02-04T05:53:20;5.90;99.90
25983;DHT22;13773;48.868;10.730;2024-02-04T05:55:46;6.00;99.90
25983;DHT22;13773;48.868;10.730;2024-02-04T05:58:12;6.00;99.90
25983;DHT22;13773;48.868;10.730;2024-02-04T06:00:39;6.00;99.90
25983;DHT22;13773;48.868;10.730;2024-02-04T06:03:05;5.90;99.90
25983;DHT22;13773;48.868;10.730;2024-02-04T06:05:31;5.90;99.90
25983;DHT22;13773;48.868;10.730;2024-02-04T06:07:57;5.90;99.90
25983;DHT22;13773;48.868;10.730;2024-02-04T06:10:22;5.90;99.90
25983;DHT22;13773;48.868;10.730;2024-02-04T06:12:48;6.00;99.90
25983;DHT22;13773;48.868;10.730;2024-02-04T06:15:17;5.90;99.90
25983;DHT22;13773;48.868;10.730;2024-02-04T06:17:43;5.90;99.90
25983;DHT22;13773;48.868;10.730;2024-02-04T06:20:09;5.90;99.90
25983;DHT22;13773;48.868;10.730;2024-02-04T06:22:36;5.90;99.90
25983;DHT22;13773;48.868;10.730;2024-02-04T06:25:03;5.90;99.90
25983;DHT22;13773;48.868;10.730;2024-02-04T06:27:29;5.90;99.90
25983;DHT22;13773;48.868;10.730;2024-02-04T06:29:55;5.90;99.90
25983;DHT22;13773;48.868;10.730;2024-02-04T06:32:21;5.90;99.90
25983;DHT22;13773;48.868;10.730;2024-02-04T06:34:47;5.90;99.90
25983;DHT22;13773;48.868;10.730;2024-02-04T06:37:13;5.90;99.90
25983;DHT22;13773;48.868;10.730;2024-02-04T06:39:38;5.90;99.90
25983;DHT22;13773;48.868;10.730;2024-02-04T06:42:04;6.00;99.90
25983;DHT22;13773;48.868;10.730;2024-02-04T06:44:30;5.90;99.90
25983;DHT22;13773;48.868;10.730;2024-02-04T06:46:56;6.00;99.90
25983;DHT22;13773;48.868;10.730;2024-02-04T06:49:21;6.00;99.90
25983;DHT22;13773;48.868;10.730;2024-02-04T06:51:47;6.00;99.90
25983;DHT22;13773;48.868;10.730;2024-02-04T06:54:14;6.00;99.90
25983;DHT22;13773;48.868;10.730;2024-02-04T06:56:40;6.00;99.90
25983;DHT22;13773;48.868;10.730;2024-02-04T06:59:06;6.00;99.90
25983;DHT22;13773;48.868;10.730;2024-02-04T07:01:32;6.00;99.90
25983;DHT22;13773;48.868;10.730;2024-02-04T07:03:58;6.00;99.90
25983;DHT22;13773;48.868;10.730;2024-02-04T07:06:24;6.00;99.90
25983;DHT22;13773;48.868;10.730;2024-02-04T07:08:49;6.00;99.90
25983;DHT22;13773;48.868;10.730;2024-02-04T07:11:15;6.00;99.90
25983;DHT22;13773;48.868;10.730;2024-02-04T07:13:41;6.00;99.90
25983;DHT22;13773;48.868;10.730;2024-02-04T07:16:07;6.10;99.90
25983;DHT22;13773;48.868;10.730;2024-02-04T07:18:33;6.10;99.90
25983;DHT22;13773;48.868;10.730;2024-02-04T07:20:58;6.10;99.90
25983;DHT22;13773;48.868;10.730;2024-02-04T07:23:24;6.20;99.90
25983;DHT22;13773;48.868;10.730;2024-02-04T07:25:50;6.20;99.90
25983;DHT22;13773;48.868;10.730;2024-02-04T07:28:15;6.20;99.90
25983;DHT22;13773;48.868;10.730;2024-02-04T07:30:41;6.30;99.90
25983;DHT22;13773;48.868;10.730;2024-02-04T07:33:07;6.30;99.90
25983;DHT22;13773;48.868;10.730;2024-02-04T07:35:32;6.40;99.90
25983;DHT22;13773;48.868;10.730;2024-02-04T07:37:58;6.30;99.90
25983;DHT22;13773;48.868;10.730;2024-02-04T07:40:24;6.40;99.90
25983;DHT22;13773;48.868;10.730;2024-02-04T07:42:49;6.40;99.90
25983;DHT22;13773;48.868;10.730;2024-02-04T07:45:15;6.40;99.90
25983;DHT22;13773;48.868;10.730;2024-02-04T07:47:41;6.50;99.90
25983;DHT22;13773;48.868;10.730;2024-02-04T07:50:07;6.50;99.90
25983;DHT22;13773;48.868;10.730;2024-02-04T07:52:33;6.50;99.90
25983;DHT22;13773;48.868;10.730;2024-02-04T07:54:59;6.60;99.90
25983;DHT22;13773;48.868;10.730;2024-02-04T07:57:24;6.70;99.90
25983;DHT22;13773;48.868;10.730;2024-02-04T07:59:50;6.70;99.90
25983;DHT22;13773;48.868;10.730;2024-02-04T08:02:17;6.70;99.90
25983;DHT22;13773;48.868;10.730;2024-02-04T08:04:43;6.80;99.90
25983;DHT22;13773;48.868;10.730;2024-02-04T08:07:09;6.80;99.90
25983;DHT22;13773;48.868;10.730;2024-02-04T08:09:34;6.80;99.90
25983;DHT22;13773;48.868;10.730;2024-02-04T08:12:00;6.90;99.90
25983;DHT22;13773;48.868;10.730;2024-02-04T08:14:26;6.80;99.90
25983;DHT22;13773;48.868;10.730;2024-02-04T08:16:51;6.80;99.90
25983;DHT22;13773;48.868;10.730;2024-02-04T08:19:17;6.80;99.90
25983;DHT22;13773;48.868;10.730;2024-02-04T08:21:43;6.80;99.90
25983;DHT22;13773;48.868;10.730;2024-02-04T08:24:08;6.80;99.90
25983;DHT22;13773;48.868;10.730;2024-02-04T08:26:34;6.90;99.90
25983;DHT22;13773;48.868;10.730;2024-02-04T08:29:00;7.00;99.90
25983;DHT22;13773;48.868;10.730;2024-02-04T08:31:25;7.00;99.90
25983;DHT22;13773;48.868;10.730;2024-02-04T08:33:51;7.10;99.90
25983;DHT22;13773;48.868;10.730;2024-02-04T08:36:18;7.10;99.90
25983;DHT22;13773;48.868;10.730;2024-02-04T08:38:44;7.10;99.90
25983;DHT22;13773;48.868;10.730;2024-02-04T08:41:10;7.20;99.90
25983;DHT22;13773;48.868;10.730;2024-02-04T08:43:36;7.10;99.90
25983;DHT22;13773;48.868;10.730;2024-02-04T08:46:01;7.10;99.90
25983;DHT22;13773;48.868;10.730;2024-02-04T08:48:27;7.10;99.90
25983;DHT22;13773;48.868;10.730;2024-02-04T08:50:53;7.10;99.90
25983;DHT22;13773;48.868;10.730;2024-02-04T08:53:21;7.10;99.90
25983;DHT22;13773;48.868;10.730;2024-02-04T08:55:49;7.10;99.90
25983;DHT22;13773;48.868;10.730;2024-02-04T08:58:14;7.10;99.90
25983;DHT22;13773;48.868;10.730;2024-02-04T09:00:40;7.10;99.90
25983;DHT22;13773;48.868;10.730;2024-02-04T09:03:06;7.20;99.90
25983;DHT22;13773;48.868;10.730;2024-02-04T09:05:31;7.20;99.90
25983;DHT22;13773;48.868;10.730;2024-02-04T09:07:57;7.40;99.90
25983;DHT22;13773;48.868;10.730;2024-02-04T09:10:23;7.40;99.90
25983;DHT22;13773;48.868;10.730;2024-02-04T09:12:48;7.40;99.90
25983;DHT22;13773;48.868;10.730;2024-02-04T09:15:14;7.50;99.90
25983;DHT22;13773;48.868;10.730;2024-02-04T09:17:40;7.40;99.90
25983;DHT22;13773;48.868;10.730;2024-02-04T09:20:07;7.50;99.90
25983;DHT22;13773;48.868;10.730;2024-02-04T09:22:33;7.50;99.90
25983;DHT22;13773;48.868;10.730;2024-02-04T09:24:59;7.50;99.90
25983;DHT22;13773;48.868;10.730;2024-02-04T09:27:25;7.50;99.90
25983;DHT22;13773;48.868;10.730;2024-02-04T09:29:51;7.50;99.90
25983;DHT22;13773;48.868;10.730;2024-02-04T09:32:17;7.60;99.90
25983;DHT22;13773;48.868;10.730;2024-02-04T09:34:43;7.60;99.90
25983;DHT22;13773;48.868;10.730;2024-02-04T09:37:09;7.70;99.90
25983;DHT22;13773;48.868;10.730;2024-02-04T09:39:34;7.70;99.90
25983;DHT22;13773;48.868;10.730;2024-02-04T09:42:01;7.70;99.90
25983;DHT22;13773;48.868;10.730;2024-02-04T09:44:26;7.70;99.90
25983;DHT22;13773;48.868;10.730;2024-02-04T09:46:53;7.80;99.90
25983;DHT22;13773;48.868;10.730;2024-02-04T09:49:19;7.80;99.90
25983;DHT22;13773;48.868;10.730;2024-02-04T09:51:46;7.80;99.90
25983;DHT22;13773;48.868;10.730;2024-02-04T09:54:14;7.90;99.90
25983;DHT22;13773;48.868;10.730;2024-02-04T09:56:41;8.00;99.90
25983;DHT22;13773;48.868;10.730;2024-02-04T09:59:07;8.10;99.90
25983;DHT22;13773;48.868;10.730;2024-02-04T10:01:33;8.20;99.90
25983;DHT22;13773;48.868;10.730;2024-02-04T10:04:01;8.30;99.90
25983;DHT22;13773;48.868;10.730;2024-02-04T10:06:27;8.20;99.90
25983;DHT22;13773;48.868;10.730;2024-02-04T10:08:52;8.20;99.90
25983;DHT22;13773;48.868;10.730;2024-02-04T10:11:18;8.30;99.90
25983;DHT22;13773;48.868;10.730;2024-02-04T10:13:45;8.30;99.90
25983;DHT22;13773;48.868;10.730;2024-02-04T10:16:12;8.40;99.90
25983;DHT22;13773;48.868;10.730;2024-02-04T10:18:41;8.50;99.90
25983;DHT22;13773;48.868;10.730;2024-02-04T10:21:15;8.60;99.90
25983;DHT22;13773;48.868;10.730;2024-02-04T10:23:41;8.60;99.90
25983;DHT22;13773;48.868;10.730;2024-02-04T10:26:07;8.70;99.90
25983;DHT22;13773;48.868;10.730;2024-02-04T10:28:32;8.70;99.90
25983;DHT22;13773;48.868;10.730;2024-02-04T10:30:58;8.60;99.90
25983;DHT22;13773;48.868;10.730;2024-02-04T10:33:24;8.60;99.90
25983;DHT22;13773;48.868;10.730;2024-02-04T10:35:49;8.60;99.90
25983;DHT22;13773;48.868;10.730;2024-02-04T10:38:15;8.60;99.90
25983;DHT22;13773;48.868;10.730;2024-02-04T10:40:41;8.70;99.90
25983;DHT22;13773;48.868;10.730;2024-02-04T10:43:07;8.70;99.90
25983;DHT22;13773;48.868;10.730;2024-02-04T10:45:36;8.80;99.90
25983;DHT22;13773;48.868;10.730;2024-02-04T10:48:04;8.80;99.90
25983;DHT22;13773;48.868;10.730;2024-02-04T10:50:33;8.90;99.90
25983;DHT22;13773;48.868;10.730;2024-02-04T10:53:04;9.00;99.90
25983;DHT22;13773;48.868;10.730;2024-02-04T10:55:33;9.00;99.90
25983;DHT22;13773;48.868;10.730;2024-02-04T10:58:04;8.90;99.90
25983;DHT22;13773;48.868;10.730;2024-02-04T11:00:30;9.00;99.90
25983;DHT22;13773;48.868;10.730;2024-02-04T11:02:56;9.10;99.90
25983;DHT22;13773;48.868;10.730;2024-02-04T11:05:23;9.30;99.90
25983;DHT22;13773;48.868;10.730;2024-02-04T11:07:50;9.40;99.90
25983;DHT22;13773;48.868;10.730;2024-02-04T11:10:16;9.30;99.90
25983;DHT22;13773;48.868;10.730;2024-02-04T11:12:44;9.30;99.90
25983;DHT22;13773;48.868;10.730;2024-02-04T11:15:13;9.30;99.90
25983;DHT22;13773;48.868;10.730;2024-02-04T11:17:51;9.10;99.90
25983;DHT22;13773;48.868;10.730;2024-02-04T11:25:45;8.80;99.90
25983;DHT22;13773;48.868;10.730;2024-02-04T11:28:12;8.80;99.90
25983;DHT22;13773;48.868;10.730;2024-02-04T11:30:39;8.70;99.90
25983;DHT22;13773;48.868;10.730;2024-02-04T11:33:05;8.70;99.90
25983;DHT22;13773;48.868;10.730;2024-02-04T11:35:34;8.70;99.90
25983;DHT22;13773;48.868;10.730;2024-02-04T11:38:02;8.70;99.90
25983;DHT22;13773;48.868;10.730;2024-02-04T11:40:34;8.70;99.90
25983;DHT22;13773;48.868;10.730;2024-02-04T11:43:26;8.70;99.90
25983;DHT22;13773;48.868;10.730;2024-02-04T11:45:52;8.80;99.90
25983;DHT22;13773;48.868;10.730;2024-02-04T11:48:34;8.70;99.90
25983;DHT22;13773;48.868;10.730;2024-02-04T11:51:04;8.70;99.90
25983;DHT22;13773;48.868;10.730;2024-02-04T11:53:30;8.70;99.90
25983;DHT22;13773;48.868;10.730;2024-02-04T11:55:59;8.70;99.90
25983;DHT22;13773;48.868;10.730;2024-02-04T11:58:29;8.60;99.90
25983;DHT22;13773;48.868;10.730;2024-02-04T12:00:56;8.60;99.90
25983;DHT22;13773;48.868;10.730;2024-02-04T12:03:31;8.50;99.90
25983;DHT22;13773;48.868;10.730;2024-02-04T12:05:57;8.60;99.90
25983;DHT22;13773;48.868;10.730;2024-02-04T12:08:24;8.60;99.90
25983;DHT22;13773;48.868;10.730;2024-02-04T12:10:50;8.60;99.90
25983;DHT22;13773;48.868;10.730;2024-02-04T12:13:19;8.70;99.90
25983;DHT22;13773;48.868;10.730;2024-02-04T12:15:46;8.60;99.90
25983;DHT22;13773;48.868;10.730;2024-02-04T12:18:12;8.60;99.90
25983;DHT22;13773;48.868;10.730;2024-02-04T12:20:39;8.50;99.90
25983;DHT22;13773;48.868;10.730;2024-02-04T12:23:06;8.60;99.90
25983;DHT22;13773;48.868;10.730;2024-02-04T12:25:32;8.60;99.90
25983;DHT22;13773;48.868;10.730;2024-02-04T12:27:59;8.60;99.90
25983;DHT22;13773;48.868;10.730;2024-02-04T12:30:29;8.70;99.90
25983;DHT22;13773;48.868;10.730;2024-02-04T12:32:58;8.80;99.90
25983;DHT22;13773;48.868;10.730;2024-02-04T12:35:25;8.90;99.90
25983;DHT22;13773;48.868;10.730;2024-02-04T12:37:52;9.00;99.90
25983;DHT22;13773;48.868;10.730;2024-02-04T12:40:28;9.00;99.90
25983;DHT22;13773;48.868;10.730;2024-02-04T12:45:26;8.90;99.90
25983;DHT22;13773;48.868;10.730;2024-02-04T12:47:54;9.00;99.90
25983;DHT22;13773;48.868;10.730;2024-02-04T12:50:20;8.90;99.90
25983;DHT22;13773;48.868;10.730;2024-02-04T12:52:47;8.90;99.90
25983;DHT22;13773;48.868;10.730;2024-02-04T12:55:27;8.80;99.90
25983;DHT22;13773;48.868;10.730;2024-02-04T12:58:07;8.80;99.90
25983;DHT22;13773;48.868;10.730;2024-02-04T13:00:36;8.80;99.90
25983;DHT22;13773;48.868;10.730;2024-02-04T13:03:07;8.80;99.90
25983;DHT22;13773;48.868;10.730;2024-02-04T13:05:37;8.80;99.90
25983;DHT22;13773;48.868;10.730;2024-02-04T13:08:04;8.80;99.90
25983;DHT22;13773;48.868;10.730;2024-02-04T13:10:35;8.90;99.90
25983;DHT22;13773;48.868;10.730;2024-02-04T13:13:08;8.90;99.90
25983;DHT22;13773;48.868;10.730;2024-02-04T13:15:42;8.90;99.90
25983;DHT22;13773;48.868;10.730;2024-02-04T13:18:09;8.90;99.90
25983;DHT22;13773;48.868;10.730;2024-02-04T13:20:40;8.90;99.90
25983;DHT22;13773;48.868;10.730;2024-02-04T13:23:10;8.90;99.90
25983;DHT22;13773;48.868;10.730;2024-02-04T13:25:35;8.90;99.90
25983;DHT22;13773;48.868;10.730;2024-02-04T13:28:01;8.90;99.90
25983;DHT22;13773;48.868;10.730;2024-02-04T13:30:28;8.90;99.90
25983;DHT22;13773;48.868;10.730;2024-02-04T13:32:53;8.80;99.90
25983;DHT22;13773;48.868;10.730;2024-02-04T13:35:19;8.80;99.90
25983;DHT22;13773;48.868;10.730;2024-02-04T13:37:47;8.80;99.90
25983;DHT22;13773;48.868;10.730;2024-02-04T13:40:16;8.80;99.90
25983;DHT22;13773;48.868;10.730;2024-02-04T13:42:42;8.80;99.90
25983;DHT22;13773;48.868;10.730;2024-02-04T13:45:07;8.70;99.90
25983;DHT22;13773;48.868;10.730;2024-02-04T13:47:34;8.70;99.90
25983;DHT22;13773;48.868;10.730;2024-02-04T13:50:00;8.70;99.90
25983;DHT22;13773;48.868;10.730;2024-02-04T13:52:26;8.70;99.90
25983;DHT22;13773;48.868;10.730;2024-02-04T13:54:52;8.70;99.90
25983;DHT22;13773;48.868;10.730;2024-02-04T13:57:17;8.70;99.90
25983;DHT22;13773;48.868;10.730;2024-02-04T13:59:43;8.70;99.90
25983;DHT22;13773;48.868;10.730;2024-02-04T14:02:09;8.70;99.90
25983;DHT22;13773;48.868;10.730;2024-02-04T14:04:35;8.60;99.90
25983;DHT22;13773;48.868;10.730;2024-02-04T14:07:01;8.60;99.90
25983;DHT22;13773;48.868;10.730;2024-02-04T14:09:27;8.60;99.90
25983;DHT22;13773;48.868;10.730;2024-02-04T14:11:54;8.60;99.90
25983;DHT22;13773;48.868;10.730;2024-02-04T14:14:25;8.60;99.90
25983;DHT22;13773;48.868;10.730;2024-02-04T14:16:51;8.60;99.90
25983;DHT22;13773;48.868;10.730;2024-02-04T14:19:17;8.60;99.90
25983;DHT22;13773;48.868;10.730;2024-02-04T14:21:43;8.60;99.90
25983;DHT22;13773;48.868;10.730;2024-02-04T14:24:09;8.60;99.90
25983;DHT22;13773;48.868;10.730;2024-02-04T14:26:35;8.60;99.90
25983;DHT22;13773;48.868;10.730;2024-02-04T14:29:00;8.60;99.90
25983;DHT22;13773;48.868;10.730;2024-02-04T14:31:28;8.60;99.90
25983;DHT22;13773;48.868;10.730;2024-02-04T14:33:53;8.60;99.90
25983;DHT22;13773;48.868;10.730;2024-02-04T14:36:20;8.60;99.90
25983;DHT22;13773;48.868;10.730;2024-02-04T14:38:45;8.50;99.90
25983;DHT22;13773;48.868;10.730;2024-02-04T14:41:11;8.50;99.90
25983;DHT22;13773;48.868;10.730;2024-02-04T14:43:37;8.40;99.90
25983;DHT22;13773;48.868;10.730;2024-02-04T14:46:04;8.40;99.90
25983;DHT22;13773;48.868;10.730;2024-02-04T14:48:30;8.50;99.90
25983;DHT22;13773;48.868;10.730;2024-02-04T14:50:55;8.40;99.90
25983;DHT22;13773;48.868;10.730;2024-02-04T14:53:23;8.40;99.90
25983;DHT22;13773;48.868;10.730;2024-02-04T14:55:49;8.40;99.90
25983;DHT22;13773;48.868;10.730;2024-02-04T14:58:15;8.40;99.90
25983;DHT22;13773;48.868;10.730;2024-02-04T15:00:40;8.50;99.90
25983;DHT22;13773;48.868;10.730;2024-02-04T15:03:06;8.50;99.90
25983;DHT22;13773;48.868;10.730;2024-02-04T15:05:32;8.50;99.90
25983;DHT22;13773;48.868;10.730;2024-02-04T15:07:58;8.50;99.90
25983;DHT22;13773;48.868;10.730;2024-02-04T15:10:23;8.50;99.90
25983;DHT22;13773;48.868;10.730;2024-02-04T15:12:49;8.50;99.90
25983;DHT22;13773;48.868;10.730;2024-02-04T15:15:18;8.50;99.90
25983;DHT22;13773;48.868;10.730;2024-02-04T15:17:44;8.40;99.90
25983;DHT22;13773;48.868;10.730;2024-02-04T15:20:10;8.50;99.90
25983;DHT22;13773;48.868;10.730;2024-02-04T15:22:37;8.40;99.90
25983;DHT22;13773;48.868;10.730;2024-02-04T15:25:05;8.40;99.90
25983;DHT22;13773;48.868;10.730;2024-02-04T15:27:31;8.40;99.90
25983;DHT22;13773;48.868;10.730;2024-02-04T15:29:57;8.30;99.90
25983;DHT22;13773;48.868;10.730;2024-02-04T15:32:23;8.30;99.90
25983;DHT22;13773;48.868;10.730;2024-02-04T15:34:49;8.30;99.90
25983;DHT22;13773;48.868;10.730;2024-02-04T15:37:16;8.30;99.90